createdAt,value
2018-06-21T00:00:30.116Z,99.90
2018-06-21T00:02:58.367Z,99.90
2018-06-21T00:05:26.627Z,99.90
2018-06-21T00:07:54.910Z,99.90
2018-06-21T00:10:23.256Z,99.90
2018-06-21T00:12:51.661Z,99.90
2018-06-21T00:15:20.155Z,99.90
2018-06-21T00:17:49.209Z,99.90
2018-06-21T00:20:17.471Z,99.90
2018-06-21T00:22:45.746Z,99.90
2018-06-21T00:25:14.629Z,99.90
2018-06-21T00:27:42.964Z,99.90
2018-06-21T00:30:11.309Z,99.90
2018-06-21T00:32:39.593Z,99.90
2018-06-21T00:35:08.012Z,99.90
2018-06-21T00:37:36.324Z,99.90
2018-06-21T00:40:04.680Z,99.90
2018-06-21T00:42:33.471Z,99.90
2018-06-21T00:45:01.735Z,99.90
2018-06-21T00:47:29.996Z,99.90
2018-06-21T00:49:58.262Z,99.90
2018-06-21T00:52:26.523Z,99.90
2018-06-21T00:54:54.797Z,99.90
2018-06-21T00:57:23.085Z,99.90
2018-06-21T00:59:51.374Z,99.90
2018-06-21T01:02:19.668Z,99.90
2018-06-21T01:04:48.443Z,99.90
2018-06-21T01:07:17.421Z,99.90
2018-06-21T01:09:45.686Z,99.90
2018-06-21T01:12:18.130Z,99.90
2018-06-21T01:14:46.395Z,99.90
2018-06-21T01:17:14.671Z,99.90
2018-06-21T01:19:42.942Z,99.90
2018-06-21T01:22:11.219Z,99.90
2018-06-21T01:24:39.478Z,99.90
2018-06-21T01:27:08.010Z,99.90
2018-06-21T01:29:36.690Z,99.90
2018-06-21T01:32:05.039Z,99.90
2018-06-21T01:34:33.301Z,99.90
2018-06-21T01:37:01.551Z,99.90
2018-06-21T01:39:29.799Z,99.90
2018-06-21T01:41:58.069Z,99.90
2018-06-21T01:44:26.332Z,99.90
2018-06-21T01:46:54.579Z,99.90
2018-06-21T01:49:23.070Z,99.90
2018-06-21T01:51:51.412Z,99.90
2018-06-21T01:54:19.842Z,99.90
2018-06-21T01:56:48.108Z,99.90
2018-06-21T01:59:16.367Z,99.90
2018-06-21T02:01:44.639Z,99.90
2018-06-21T02:04:13.447Z,99.90
2018-06-21T02:06:41.687Z,99.90
2018-06-21T02:09:10.276Z,99.90
2018-06-21T02:11:38.544Z,99.90
2018-06-21T02:14:07.052Z,99.90
2018-06-21T02:16:35.672Z,99.90
2018-06-21T02:19:03.933Z,99.90
2018-06-21T02:21:32.175Z,99.90
2018-06-21T02:24:00.428Z,99.90
2018-06-21T02:26:28.675Z,99.90
2018-06-21T02:28:56.928Z,99.90
2018-06-21T02:31:25.202Z,99.90
2018-06-21T02:33:53.576Z,99.90
2018-06-21T02:36:21.870Z,99.90
2018-06-21T02:38:50.133Z,99.90
2018-06-21T02:41:18.460Z,99.90
2018-06-21T02:43:46.744Z,99.90
2018-06-21T02:46:15.552Z,99.90
2018-06-21T02:48:43.850Z,99.90
2018-06-21T02:51:12.119Z,99.90
2018-06-21T02:53:40.412Z,99.90
2018-06-21T02:56:08.682Z,99.90
2018-06-21T02:58:36.946Z,99.90
2018-06-21T03:01:05.256Z,99.90
2018-06-21T03:03:33.951Z,99.90
2018-06-21T03:06:02.239Z,99.90
2018-06-21T03:08:30.494Z,99.90
2018-06-21T03:10:58.760Z,99.90
2018-06-21T03:13:27.016Z,99.90
2018-06-21T03:15:55.272Z,99.90
2018-06-21T03:18:23.558Z,99.90
2018-06-21T03:20:51.822Z,99.90
2018-06-21T03:23:20.077Z,99.90
2018-06-21T03:28:16.601Z,99.90
2018-06-21T03:30:44.916Z,99.90
2018-06-21T03:33:13.171Z,99.90
2018-06-21T03:35:41.416Z,99.90
2018-06-21T03:38:09.763Z,99.90
2018-06-21T03:40:38.030Z,99.90
2018-06-21T03:43:06.387Z,99.90
2018-06-21T03:45:34.638Z,99.90
2018-06-21T03:48:02.940Z,99.90
2018-06-21T03:50:31.187Z,99.90
2018-06-21T03:52:59.447Z,99.90
2018-06-21T03:55:27.697Z,99.90
2018-06-21T03:57:55.953Z,99.90
2018-06-21T04:00:24.631Z,99.90
2018-06-21T04:05:20.948Z,99.90
2018-06-21T04:07:49.173Z,99.90
2018-06-21T04:10:17.692Z,99.90
2018-06-21T04:12:46.455Z,99.90
2018-06-21T04:15:14.770Z,99.90
2018-06-21T04:17:43.088Z,99.90
2018-06-21T04:20:11.355Z,99.90
2018-06-21T04:22:39.627Z,99.90
2018-06-21T04:25:07.894Z,99.90
2018-06-21T04:27:36.167Z,99.90
2018-06-21T04:30:04.615Z,99.90
2018-06-21T04:32:32.885Z,99.90
2018-06-21T04:35:01.184Z,99.90
2018-06-21T04:37:29.465Z,99.90
2018-06-21T04:39:57.742Z,99.90
2018-06-21T04:42:26.016Z,99.90
2018-06-21T04:44:54.287Z,99.90
2018-06-21T04:47:22.552Z,99.90
2018-06-21T04:49:50.832Z,99.90
2018-06-21T04:52:19.102Z,99.90
2018-06-21T04:54:47.460Z,99.90
2018-06-21T04:57:15.765Z,99.90
2018-06-21T04:59:44.308Z,99.90
2018-06-21T05:02:12.600Z,99.90
2018-06-21T05:04:40.871Z,99.90
2018-06-21T05:07:09.234Z,99.90
2018-06-21T05:09:37.586Z,99.90
2018-06-21T05:12:05.909Z,99.90
2018-06-21T05:14:34.222Z,99.90
2018-06-21T05:17:02.492Z,99.90
2018-06-21T05:19:32.306Z,99.90
2018-06-21T05:22:00.663Z,99.90
2018-06-21T05:24:28.946Z,99.90
2018-06-21T05:26:57.203Z,99.90
2018-06-21T05:29:25.478Z,99.90
2018-06-21T05:31:53.950Z,99.90
2018-06-21T05:34:22.216Z,99.90
2018-06-21T05:36:50.542Z,99.90
2018-06-21T05:39:18.808Z,99.90
2018-06-21T05:41:47.074Z,99.90
2018-06-21T05:44:15.330Z,99.90
2018-06-21T05:46:43.608Z,99.90
2018-06-21T05:49:11.880Z,99.90
2018-06-21T05:51:40.138Z,99.90
2018-06-21T05:54:08.411Z,99.90
2018-06-21T05:56:36.710Z,99.90
2018-06-21T05:59:04.991Z,99.90
2018-06-21T06:01:33.275Z,99.90
2018-06-21T06:04:01.535Z,99.90
2018-06-21T06:06:29.794Z,99.90
2018-06-21T06:08:58.079Z,99.90
2018-06-21T06:11:26.537Z,99.90
2018-06-21T06:13:54.816Z,99.90
2018-06-21T06:16:23.094Z,99.90
2018-06-21T06:18:51.371Z,99.40
2018-06-21T06:21:19.714Z,98.90
2018-06-21T06:23:48.328Z,93.10
2018-06-21T06:26:16.588Z,90.60
2018-06-21T06:28:45.219Z,90.50
2018-06-21T06:31:13.341Z,83.60
2018-06-21T06:33:41.620Z,79.60
2018-06-21T06:36:09.883Z,73.90
2018-06-21T06:38:38.139Z,69.70
2018-06-21T06:41:06.424Z,69.10
2018-06-21T06:43:34.767Z,67.10
2018-06-21T06:46:03.034Z,63.50
2018-06-21T06:48:31.316Z,62.10
2018-06-21T06:50:59.578Z,62.20
2018-06-21T06:53:27.838Z,61.40
2018-06-21T06:55:56.114Z,62.60
2018-06-21T06:58:24.375Z,60.60
2018-06-21T07:00:52.642Z,59.10
2018-06-21T07:03:21.186Z,58.60
2018-06-21T07:05:49.436Z,57.20
2018-06-21T07:08:19.571Z,58.70
2018-06-21T07:10:47.794Z,56.10
2018-06-21T07:13:16.135Z,56.20
2018-06-21T07:15:44.432Z,55.60
2018-06-21T07:18:12.723Z,55.90
2018-06-21T07:20:41.456Z,53.90
2018-06-21T07:23:09.750Z,53.50
2018-06-21T07:25:38.238Z,53.90
2018-06-21T07:28:06.717Z,51.90
2018-06-21T07:30:34.986Z,50.20
2018-06-21T07:33:03.288Z,49.20
2018-06-21T07:35:31.563Z,48.30
2018-06-21T07:37:59.843Z,46.70
2018-06-21T07:40:28.117Z,46.90
2018-06-21T07:42:56.386Z,47.80
2018-06-21T07:45:24.662Z,45.90
2018-06-21T07:47:52.951Z,46.00
2018-06-21T07:50:21.236Z,44.40
2018-06-21T07:52:49.518Z,42.40
2018-06-21T07:55:17.820Z,43.70
2018-06-21T07:57:46.101Z,42.10
2018-06-21T08:00:14.385Z,41.30
2018-06-21T08:02:42.678Z,41.90
2018-06-21T08:05:10.969Z,41.30
2018-06-21T08:07:39.235Z,43.10
2018-06-21T08:10:07.510Z,43.30
2018-06-21T08:12:35.778Z,42.50
2018-06-21T08:15:04.072Z,43.80
2018-06-21T08:17:32.334Z,41.40
2018-06-21T08:20:00.639Z,42.30
2018-06-21T08:22:28.901Z,41.50
2018-06-21T08:25:10.546Z,41.20
2018-06-21T08:27:38.914Z,41.40
2018-06-21T08:30:07.229Z,43.60
2018-06-21T08:32:35.501Z,42.50
2018-06-21T08:35:03.772Z,42.30
2018-06-21T08:37:32.035Z,42.50
2018-06-21T08:40:00.302Z,41.40
2018-06-21T08:42:28.570Z,42.00
2018-06-21T08:44:56.823Z,43.30
2018-06-21T08:47:25.095Z,44.80
2018-06-21T08:49:53.351Z,45.80
2018-06-21T08:52:21.610Z,49.00
2018-06-21T08:54:49.884Z,48.40
2018-06-21T08:57:18.151Z,46.60
2018-06-21T08:59:46.416Z,44.20
2018-06-21T09:02:14.678Z,43.70
2018-06-21T09:04:42.964Z,43.30
2018-06-21T09:07:11.406Z,42.70
2018-06-21T09:09:39.692Z,44.30
2018-06-21T09:12:07.966Z,47.10
2018-06-21T09:14:36.218Z,50.10
2018-06-21T09:17:04.496Z,53.10
2018-06-21T09:19:32.755Z,55.50
2018-06-21T09:22:01.018Z,55.30
2018-06-21T09:26:57.303Z,51.00
2018-06-21T09:29:25.554Z,49.20
2018-06-21T09:31:54.067Z,51.60
2018-06-21T09:34:22.330Z,51.10
2018-06-21T09:36:50.597Z,50.90
2018-06-21T09:39:24.251Z,50.30
2018-06-21T09:41:58.051Z,51.20
2018-06-21T09:44:31.721Z,49.40
2018-06-21T09:47:05.514Z,47.80
2018-06-21T09:49:34.462Z,47.40
2018-06-21T09:52:04.711Z,46.60
2018-06-21T09:57:01.344Z,48.70
2018-06-21T09:59:30.542Z,42.40
2018-06-21T10:01:58.814Z,43.40
2018-06-21T10:04:27.258Z,42.60
2018-06-21T10:06:55.527Z,43.80
2018-06-21T10:09:23.800Z,45.40
2018-06-21T10:11:52.058Z,45.00
2018-06-21T10:14:20.589Z,42.00
2018-06-21T10:19:16.885Z,42.20
2018-06-21T10:21:45.143Z,43.20
2018-06-21T10:24:13.422Z,44.90
2018-06-21T10:26:41.677Z,43.30
2018-06-21T10:29:09.926Z,44.30
2018-06-21T10:34:28.814Z,44.60
2018-06-21T10:36:57.091Z,45.40
2018-06-21T10:39:25.373Z,46.80
2018-06-21T10:41:53.678Z,47.00
2018-06-21T10:44:21.950Z,44.90
2018-06-21T10:46:50.246Z,43.00
2018-06-21T10:49:18.535Z,43.80
2018-06-21T10:51:46.838Z,45.10
2018-06-21T10:54:15.118Z,42.90
2018-06-21T10:56:43.423Z,45.70
2018-06-21T10:59:11.739Z,42.50
2018-06-21T11:01:40.039Z,41.90
2018-06-21T11:04:08.443Z,44.60
2018-06-21T11:06:36.748Z,43.10
2018-06-21T11:09:07.259Z,41.90
2018-06-21T11:11:35.578Z,40.70
2018-06-21T11:14:03.893Z,40.90
2018-06-21T11:16:32.182Z,43.30
2018-06-21T11:19:00.474Z,42.00
2018-06-21T11:21:28.829Z,41.30
2018-06-21T11:23:57.110Z,42.10
2018-06-21T11:26:25.554Z,42.60
2018-06-21T11:28:53.831Z,43.50
2018-06-21T11:31:22.119Z,43.30
2018-06-21T11:33:50.411Z,43.10
2018-06-21T11:36:18.697Z,43.90
2018-06-21T11:38:46.981Z,43.40
2018-06-21T11:41:15.262Z,44.50
2018-06-21T11:43:43.698Z,40.80
2018-06-21T11:46:11.967Z,40.30
2018-06-21T11:48:40.272Z,40.50
2018-06-21T11:51:08.670Z,40.00
2018-06-21T11:53:36.961Z,41.00
2018-06-21T11:56:05.517Z,41.20
2018-06-21T11:58:33.829Z,41.30
2018-06-21T12:01:02.127Z,44.10
2018-06-21T12:03:30.404Z,43.30
2018-06-21T12:05:58.819Z,44.00
2018-06-21T12:08:27.091Z,45.20
2018-06-21T12:10:55.372Z,45.00
2018-06-21T12:13:23.644Z,44.80
2018-06-21T12:15:51.904Z,46.40
2018-06-21T12:18:20.446Z,46.30
2018-06-21T12:23:16.730Z,44.20
2018-06-21T12:25:45.002Z,45.30
2018-06-21T12:28:13.309Z,46.20
2018-06-21T12:30:41.862Z,45.20
2018-06-21T12:33:10.135Z,45.40
2018-06-21T12:35:40.930Z,46.90
2018-06-21T12:38:09.607Z,48.10
2018-06-21T12:40:37.902Z,48.60
2018-06-21T12:43:06.166Z,48.50
2018-06-21T12:45:34.462Z,48.80
2018-06-21T12:48:02.733Z,49.60
2018-06-21T12:50:31.014Z,51.60
2018-06-21T12:52:59.298Z,51.50
2018-06-21T12:55:27.578Z,52.50
2018-06-21T12:57:55.857Z,53.30
2018-06-21T13:00:24.155Z,54.90
2018-06-21T13:02:52.429Z,56.60
2018-06-21T13:05:20.752Z,56.90
2018-06-21T13:07:48.999Z,56.90
2018-06-21T13:11:29.571Z,58.40
2018-06-21T13:14:09.367Z,57.20
2018-06-21T13:16:37.691Z,56.30
2018-06-21T13:19:05.974Z,56.60
2018-06-21T13:21:34.272Z,56.10
2018-06-21T13:24:02.563Z,53.70
2018-06-21T13:26:30.868Z,52.40
2018-06-21T13:28:59.150Z,51.90
2018-06-21T13:31:27.424Z,51.90
2018-06-21T13:33:55.710Z,53.00
2018-06-21T13:36:23.988Z,53.50
2018-06-21T13:38:52.314Z,54.00
2018-06-21T13:41:20.602Z,54.10
2018-06-21T13:43:48.902Z,54.80
2018-06-21T13:46:17.188Z,54.60
2018-06-21T13:48:45.903Z,55.00
2018-06-21T13:51:14.167Z,54.60
2018-06-21T13:53:42.465Z,54.80
2018-06-21T13:56:10.771Z,55.30
2018-06-21T13:58:39.154Z,56.10
2018-06-21T14:01:07.459Z,55.60
2018-06-21T14:03:35.757Z,57.00
2018-06-21T14:06:04.047Z,55.90
2018-06-21T14:08:32.527Z,55.50
2018-06-21T14:11:00.631Z,54.40
2018-06-21T14:13:28.954Z,55.30
2018-06-21T14:15:57.197Z,56.10
2018-06-21T14:18:25.471Z,54.50
2018-06-21T14:20:53.790Z,56.00
2018-06-21T14:23:22.043Z,56.70
2018-06-21T14:25:50.349Z,57.70
2018-06-21T14:28:18.634Z,57.80
2018-06-21T14:30:46.926Z,58.10
2018-06-21T14:33:15.384Z,58.50
2018-06-21T14:35:43.717Z,58.90
2018-06-21T14:38:13.273Z,59.40
2018-06-21T14:40:41.746Z,58.20
2018-06-21T14:43:10.035Z,61.60
2018-06-21T14:45:38.370Z,59.80
2018-06-21T14:48:06.683Z,59.60
2018-06-21T14:50:35.002Z,61.10
2018-06-21T14:53:03.283Z,59.50
2018-06-21T14:55:31.572Z,58.60
2018-06-21T14:58:01.363Z,58.80
2018-06-21T15:00:29.739Z,60.00
2018-06-21T15:02:58.125Z,58.10
2018-06-21T15:05:26.632Z,57.10
2018-06-21T15:07:54.995Z,56.90
2018-06-21T15:10:23.275Z,56.80
2018-06-21T15:12:51.540Z,58.40
2018-06-21T15:15:19.817Z,58.20
2018-06-21T15:17:48.823Z,55.90
2018-06-21T15:20:17.390Z,55.40
2018-06-21T15:22:45.662Z,54.20
2018-06-21T15:25:13.930Z,55.20
2018-06-21T15:27:42.206Z,55.00
2018-06-21T15:30:10.486Z,53.20
2018-06-21T15:32:38.766Z,51.20
2018-06-21T15:35:07.052Z,51.70
2018-06-21T15:37:35.327Z,51.20
2018-06-21T15:40:03.767Z,52.10
2018-06-21T15:42:32.121Z,51.10
2018-06-21T15:45:00.395Z,49.70
2018-06-21T15:47:28.690Z,51.00
2018-06-21T15:49:56.970Z,51.00
2018-06-21T15:52:25.243Z,50.20
2018-06-21T15:54:53.538Z,47.80
2018-06-21T15:57:21.867Z,47.80
2018-06-21T15:59:50.092Z,46.80
2018-06-21T16:02:18.357Z,45.40
2018-06-21T16:04:46.630Z,44.30
2018-06-21T16:07:14.906Z,45.80
2018-06-21T16:09:43.173Z,45.80
2018-06-21T16:12:11.464Z,45.90
2018-06-21T16:14:39.751Z,44.70
2018-06-21T16:17:08.068Z,45.80
2018-06-21T16:19:36.348Z,45.00
2018-06-21T16:22:04.786Z,44.30
2018-06-21T16:27:01.095Z,43.40
2018-06-21T16:29:29.354Z,41.80
2018-06-21T16:31:57.611Z,42.40
2018-06-21T16:36:53.970Z,42.00
2018-06-21T16:39:22.246Z,40.50
2018-06-21T16:41:50.507Z,40.10
2018-06-21T16:44:18.765Z,41.10
2018-06-21T16:46:47.126Z,39.60
2018-06-21T16:49:15.443Z,40.30
2018-06-21T16:51:43.791Z,41.40
2018-06-21T16:54:13.516Z,42.70
2018-06-21T16:56:42.009Z,42.00
2018-06-21T16:59:10.559Z,41.30
2018-06-21T17:01:38.825Z,42.10
2018-06-21T17:04:07.092Z,40.80
2018-06-21T17:06:35.371Z,41.40
2018-06-21T17:09:03.807Z,41.50
2018-06-21T17:11:32.163Z,41.50
2018-06-21T17:14:00.431Z,41.40
2018-06-21T17:16:28.802Z,42.20
2018-06-21T17:18:57.095Z,42.60
2018-06-21T17:21:25.391Z,42.10
2018-06-21T17:23:53.661Z,42.30
2018-06-21T17:26:22.324Z,42.90
2018-06-21T17:31:18.861Z,42.70
2018-06-21T17:33:47.348Z,41.70
2018-06-21T17:36:15.657Z,41.70
2018-06-21T17:38:43.883Z,40.90
2018-06-21T17:41:12.251Z,42.70
2018-06-21T17:43:40.583Z,41.70
2018-06-21T17:46:09.090Z,41.20
2018-06-21T17:48:37.363Z,41.80
2018-06-21T17:51:05.646Z,42.00
2018-06-21T17:53:34.034Z,40.80
2018-06-21T17:56:03.311Z,40.90
2018-06-21T17:58:31.630Z,41.20
2018-06-21T18:00:59.991Z,40.70
2018-06-21T18:03:28.270Z,41.20
2018-06-21T18:05:57.866Z,40.90
2018-06-21T18:08:26.700Z,40.90
2018-06-21T18:10:55.412Z,41.20
2018-06-21T18:13:23.955Z,40.80
2018-06-21T18:15:52.661Z,39.40
2018-06-21T18:18:20.962Z,40.40
2018-06-21T18:20:49.303Z,39.60
2018-06-21T18:23:17.881Z,39.80
2018-06-21T18:25:46.300Z,38.70
2018-06-21T18:28:14.925Z,38.20
2018-06-21T18:30:43.214Z,38.30
2018-06-21T18:33:11.473Z,37.40
2018-06-21T18:35:39.732Z,37.70
2018-06-21T18:38:08.005Z,37.80
2018-06-21T18:40:36.256Z,38.70
2018-06-21T18:43:04.623Z,39.80
2018-06-21T18:45:32.866Z,41.10
2018-06-21T18:48:01.138Z,40.10
2018-06-21T18:50:29.913Z,40.20
2018-06-21T18:52:58.183Z,40.50
2018-06-21T18:55:26.541Z,40.80
2018-06-21T18:57:55.694Z,41.80
2018-06-21T19:00:23.974Z,41.30
2018-06-21T19:05:20.217Z,41.30
2018-06-21T19:07:52.814Z,41.30
2018-06-21T19:10:26.634Z,41.20
2018-06-21T19:12:55.171Z,42.40
2018-06-21T19:15:23.964Z,41.90
2018-06-21T19:17:52.271Z,42.00
2018-06-21T19:20:20.540Z,42.30
2018-06-21T19:22:48.894Z,42.00
2018-06-21T19:25:17.160Z,41.50
2018-06-21T19:27:45.444Z,41.10
2018-06-21T19:30:13.719Z,41.50
2018-06-21T19:32:41.968Z,41.10
2018-06-21T19:35:10.767Z,41.20
2018-06-21T19:37:39.176Z,41.20
2018-06-21T19:40:07.541Z,41.60
2018-06-21T19:42:35.841Z,41.40
2018-06-21T19:45:04.156Z,41.90
2018-06-21T19:47:32.435Z,41.70
2018-06-21T19:50:00.685Z,41.80
2018-06-21T19:52:29.155Z,41.80
2018-06-21T19:54:57.410Z,42.00
2018-06-21T19:59:05.550Z,43.00
2018-06-21T20:06:29.907Z,43.90
2018-06-21T20:08:58.170Z,44.10
2018-06-21T20:11:31.774Z,44.60
2018-06-21T20:14:00.028Z,44.20
2018-06-21T20:16:28.435Z,44.20
2018-06-21T20:18:56.732Z,44.50
2018-06-21T20:21:24.992Z,44.90
2018-06-21T20:23:53.335Z,45.20
2018-06-21T20:26:21.883Z,45.30
2018-06-21T20:28:50.143Z,45.00
2018-06-21T20:31:18.822Z,45.30
2018-06-21T20:33:47.849Z,46.00
2018-06-21T20:36:16.458Z,47.20
2018-06-21T20:38:44.733Z,46.00
2018-06-21T20:41:13.190Z,46.00
2018-06-21T20:43:41.487Z,45.80
2018-06-21T20:46:09.926Z,46.50
2018-06-21T20:48:38.788Z,47.30
2018-06-21T20:51:07.079Z,46.40
2018-06-21T20:53:35.331Z,46.40
2018-06-21T20:56:03.597Z,48.00
2018-06-21T20:58:31.849Z,46.90
2018-06-21T21:01:00.142Z,47.60
2018-06-21T21:03:28.437Z,47.20
2018-06-21T21:05:56.735Z,46.30
2018-06-21T21:08:25.246Z,46.70
2018-06-21T21:10:53.516Z,47.10
2018-06-21T21:13:21.820Z,46.10
2018-06-21T21:15:50.094Z,47.90
2018-06-21T21:18:18.394Z,47.10
2018-06-21T21:20:46.674Z,46.80
2018-06-21T21:23:15.144Z,46.90
2018-06-21T21:25:43.427Z,47.10
2018-06-21T21:28:11.725Z,48.60
2018-06-21T21:30:39.984Z,48.70
2018-06-21T21:33:08.263Z,49.30
2018-06-21T21:35:36.544Z,49.20
2018-06-21T21:38:04.812Z,48.30
2018-06-21T21:40:33.089Z,48.20
2018-06-21T21:43:01.363Z,49.00
2018-06-21T21:45:29.664Z,49.40
2018-06-21T21:47:57.931Z,49.00
2018-06-21T21:50:26.203Z,49.40
2018-06-21T21:52:54.487Z,49.70
2018-06-21T21:55:22.754Z,49.80
2018-06-21T21:57:53.047Z,53.60
2018-06-21T22:00:42.956Z,54.10
2018-06-21T22:03:11.267Z,54.10
2018-06-21T22:05:39.548Z,55.60
2018-06-21T22:08:07.992Z,57.30
2018-06-21T22:10:36.260Z,57.00
2018-06-21T22:13:04.561Z,57.30
2018-06-21T22:15:32.814Z,58.00
2018-06-21T22:18:01.094Z,59.80
2018-06-21T22:20:29.355Z,60.10
2018-06-21T22:22:58.314Z,61.30
2018-06-21T22:25:26.950Z,63.20
2018-06-21T22:27:56.597Z,63.50
2018-06-21T22:30:24.866Z,63.00
2018-06-21T22:32:53.154Z,65.80
2018-06-21T22:35:39.262Z,66.10
2018-06-21T22:38:07.543Z,66.40
2018-06-21T22:43:03.819Z,70.10
2018-06-21T22:45:32.089Z,71.40
2018-06-21T22:48:00.360Z,71.20
2018-06-21T22:50:28.675Z,73.60
2018-06-21T22:52:56.895Z,75.40
2018-06-21T22:55:25.196Z,78.00
2018-06-21T22:57:53.475Z,78.30
2018-06-21T23:00:21.741Z,79.70
2018-06-21T23:02:50.008Z,81.70
2018-06-21T23:05:18.308Z,80.80
2018-06-21T23:07:46.549Z,82.20
2018-06-21T23:10:15.412Z,84.00
2018-06-21T23:16:04.884Z,85.30
2018-06-21T23:18:44.470Z,86.90
2018-06-21T23:21:13.417Z,87.30
2018-06-21T23:23:41.671Z,88.30
2018-06-21T23:26:09.920Z,90.90
2018-06-21T23:28:38.176Z,90.30
2018-06-21T23:31:06.460Z,90.50
2018-06-21T23:33:34.715Z,88.40
2018-06-21T23:36:03.008Z,83.90
2018-06-21T23:38:31.299Z,87.20
2018-06-21T23:40:59.563Z,84.30
2018-06-21T23:43:27.853Z,84.40
2018-06-21T23:45:56.142Z,86.30
2018-06-21T23:48:24.396Z,86.90
2018-06-21T23:50:52.667Z,84.90
2018-06-21T23:53:20.918Z,80.40
2018-06-21T23:55:49.196Z,79.10
2018-06-21T23:58:17.454Z,81.30
